createdAt,value
2024-05-09T00:00:10.459Z,0.00
2024-05-09T00:01:08.985Z,0.00
2024-05-09T00:02:08.913Z,0.00
2024-05-09T00:03:09.007Z,0.00
2024-05-09T00:04:08.971Z,0.00
2024-05-09T00:05:08.109Z,0.00
2024-05-09T00:06:08.793Z,0.00
2024-05-09T00:07:08.905Z,0.00
2024-05-09T00:08:08.894Z,0.00
2024-05-09T00:09:07.928Z,0.00
2024-05-09T00:10:14.701Z,0.00
2024-05-09T00:11:10.457Z,0.00
2024-05-09T00:12:08.849Z,0.00
2024-05-09T00:13:09.239Z,0.00
2024-05-09T00:14:07.931Z,0.00
2024-05-09T00:15:07.855Z,0.00
2024-05-09T00:16:08.805Z,0.00
2024-05-09T00:17:07.873Z,0.00
2024-05-09T00:18:09.003Z,0.00
2024-05-09T00:19:08.833Z,0.00
2024-05-09T00:20:17.418Z,0.00
2024-05-09T00:21:09.848Z,0.00
2024-05-09T00:22:08.740Z,0.00
2024-05-09T00:23:09.351Z,0.00
2024-05-09T00:24:08.550Z,0.00
2024-05-09T00:25:08.729Z,0.00
2024-05-09T00:26:08.680Z,0.00
2024-05-09T00:27:08.958Z,0.00
2024-05-09T00:28:08.679Z,0.00
2024-05-09T00:29:08.626Z,0.00
2024-05-09T00:30:11.695Z,0.00
2024-05-09T00:31:09.419Z,0.00
2024-05-09T00:32:07.773Z,0.00
2024-05-09T00:33:09.170Z,0.00
2024-05-09T00:34:08.915Z,0.00
2024-05-09T00:35:08.632Z,0.00
2024-05-09T00:36:08.423Z,0.00
2024-05-09T00:37:08.578Z,0.00
2024-05-09T00:38:07.695Z,0.00
2024-05-09T00:39:08.393Z,0.00
2024-05-09T00:40:14.879Z,0.00
2024-05-09T00:41:10.628Z,0.00
2024-05-09T00:42:09.494Z,0.00
2024-05-09T00:43:08.520Z,0.00
2024-05-09T00:44:08.437Z,0.00
2024-05-09T00:45:07.517Z,0.00
2024-05-09T00:46:08.484Z,0.00
2024-05-09T00:47:08.517Z,0.00
2024-05-09T00:48:09.661Z,0.00
2024-05-09T00:49:08.511Z,0.00
2024-05-09T00:50:12.650Z,0.00
2024-05-09T00:51:10.526Z,0.00
2024-05-09T00:52:07.473Z,0.00
2024-05-09T00:53:08.433Z,0.00
2024-05-09T00:54:08.228Z,0.00
2024-05-09T00:55:07.414Z,0.00
2024-05-09T00:56:07.484Z,0.00
2024-05-09T00:57:08.217Z,0.00
2024-05-09T00:58:08.370Z,0.00
2024-05-09T00:59:08.277Z,0.00
2024-05-09T01:00:18.370Z,0.00
2024-05-09T01:01:09.165Z,0.00
2024-05-09T01:02:07.412Z,0.00
2024-05-09T01:03:09.015Z,0.00
2024-05-09T01:04:09.073Z,0.00
2024-05-09T01:05:08.303Z,0.00
2024-05-09T01:06:08.108Z,0.00
2024-05-09T01:07:07.289Z,0.00
2024-05-09T01:08:07.494Z,0.00
2024-05-09T01:09:08.070Z,0.00
2024-05-09T01:10:14.118Z,0.00
2024-05-09T01:11:10.324Z,0.00
2024-05-09T01:12:08.160Z,0.00
2024-05-09T01:13:07.655Z,0.00
2024-05-09T01:14:08.140Z,0.00
2024-05-09T01:15:08.010Z,0.00
2024-05-09T01:16:08.173Z,0.00
2024-05-09T01:17:08.132Z,0.00
2024-05-09T01:18:08.234Z,0.00
2024-05-09T01:19:08.818Z,0.00
2024-05-09T01:20:10.904Z,0.00
2024-05-09T01:21:08.284Z,0.00
2024-05-09T01:22:08.106Z,0.00
2024-05-09T01:23:08.108Z,0.00
2024-05-09T01:24:07.114Z,0.00
2024-05-09T01:25:08.070Z,0.00
2024-05-09T01:26:08.050Z,0.00
2024-05-09T01:27:07.889Z,0.00
2024-05-09T01:28:08.039Z,0.00
2024-05-09T01:29:07.977Z,0.00
2024-05-09T01:30:09.469Z,0.00
2024-05-09T01:31:09.985Z,0.00
2024-05-09T01:32:08.124Z,0.00
2024-05-09T01:33:09.829Z,0.00
2024-05-09T01:34:08.469Z,0.00
2024-05-09T01:35:07.913Z,0.00
2024-05-09T01:36:07.795Z,0.00
2024-05-09T01:37:07.947Z,0.00
2024-05-09T01:38:07.974Z,0.00
2024-05-09T01:39:07.766Z,0.00
2024-05-09T01:40:12.275Z,0.00
2024-05-09T01:41:09.916Z,0.00
2024-05-09T01:42:07.726Z,0.00
2024-05-09T01:43:09.758Z,0.00
2024-05-09T01:44:07.800Z,0.00
2024-05-09T01:45:07.692Z,0.00
2024-05-09T01:46:08.328Z,0.00
2024-05-09T01:47:07.819Z,0.00
2024-05-09T01:48:07.810Z,0.00
2024-05-09T01:49:07.638Z,0.00
2024-05-09T01:50:10.714Z,0.00
2024-05-09T01:51:07.739Z,0.00
2024-05-09T01:52:08.299Z,0.00
2024-05-09T01:53:07.889Z,0.00
2024-05-09T01:54:07.588Z,0.00
2024-05-09T01:55:07.487Z,0.00
2024-05-09T01:56:07.689Z,0.00
2024-05-09T01:57:07.561Z,0.00
2024-05-09T01:58:07.762Z,0.00
2024-05-09T01:59:07.642Z,0.00
2024-05-09T02:00:08.050Z,0.00
2024-05-09T02:01:07.458Z,0.00
2024-05-09T02:02:07.742Z,0.00
2024-05-09T02:03:07.798Z,0.00
2024-05-09T02:04:07.977Z,0.00
2024-05-09T02:05:07.789Z,0.00
2024-05-09T02:06:07.528Z,0.00
2024-05-09T02:07:07.385Z,0.00
2024-05-09T02:08:07.635Z,0.00
2024-05-09T02:09:07.433Z,0.00
2024-05-09T02:10:13.778Z,0.00
2024-05-09T02:11:08.574Z,0.00
2024-05-09T02:12:07.537Z,0.00
2024-05-09T02:13:07.297Z,0.00
2024-05-09T02:14:07.544Z,0.00
2024-05-09T02:15:07.371Z,0.00
2024-05-09T02:16:07.266Z,0.00
2024-05-09T02:17:07.529Z,0.00
2024-05-09T02:18:07.646Z,0.00
2024-05-09T02:19:08.050Z,0.00
2024-05-09T02:20:10.770Z,0.00
2024-05-09T02:21:09.512Z,0.00
2024-05-09T02:22:07.211Z,0.00
2024-05-09T02:23:07.550Z,0.00
2024-05-09T02:24:07.270Z,0.00
2024-05-09T02:25:07.908Z,0.00
2024-05-09T02:26:06.460Z,0.00
2024-05-09T02:27:07.236Z,0.00
2024-05-09T02:28:07.142Z,0.00
2024-05-09T02:29:07.318Z,0.00
2024-05-09T02:30:15.193Z,0.00
2024-05-09T02:31:09.314Z,0.00
2024-05-09T02:32:07.323Z,0.00
2024-05-09T02:33:07.912Z,0.00
2024-05-09T02:34:07.143Z,0.00
2024-05-09T02:35:07.303Z,0.00
2024-05-09T02:36:07.148Z,0.00
2024-05-09T02:37:07.051Z,0.00
2024-05-09T02:38:07.278Z,0.00
2024-05-09T02:39:07.129Z,0.00
2024-05-09T02:40:09.157Z,0.00
2024-05-09T02:41:07.768Z,0.00
2024-05-09T02:42:07.079Z,0.00
2024-05-09T02:43:08.282Z,0.00
2024-05-09T02:44:07.188Z,0.00
2024-05-09T02:45:07.046Z,0.00
2024-05-09T02:46:06.964Z,0.00
2024-05-09T02:47:07.388Z,0.00
2024-05-09T02:48:07.281Z,0.00
2024-05-09T02:49:06.979Z,0.00
2024-05-09T02:50:08.253Z,0.00
2024-05-09T02:51:07.120Z,0.00
2024-05-09T02:52:06.885Z,0.00
2024-05-09T02:53:07.228Z,0.00
2024-05-09T02:54:06.959Z,0.00
2024-05-09T02:55:06.850Z,0.00
2024-05-09T02:56:07.114Z,0.00
2024-05-09T02:57:06.960Z,0.00
2024-05-09T02:58:06.828Z,0.00
2024-05-09T02:59:07.022Z,0.00
2024-05-09T03:00:12.097Z,0.00
2024-05-09T03:01:07.842Z,0.00
2024-05-09T03:02:07.049Z,0.00
2024-05-09T03:03:07.207Z,0.00
2024-05-09T03:04:07.020Z,0.00
2024-05-09T03:05:06.972Z,0.00
2024-05-09T03:06:06.824Z,0.00
2024-05-09T03:07:06.790Z,0.00
2024-05-09T03:08:06.989Z,4.00
2024-05-09T03:09:06.796Z,0.00
2024-05-09T03:10:12.229Z,0.00
2024-05-09T03:11:09.018Z,4.00
2024-05-09T03:12:06.878Z,4.00
2024-05-09T03:13:06.672Z,0.00
2024-05-09T03:14:06.928Z,4.00
2024-05-09T03:15:06.733Z,4.00
2024-05-09T03:16:06.638Z,4.00
2024-05-09T03:17:06.977Z,4.00
2024-05-09T03:18:07.369Z,8.00
2024-05-09T03:19:06.686Z,8.00
2024-05-09T03:20:11.669Z,12.00
2024-05-09T03:21:07.916Z,8.00
2024-05-09T03:22:06.583Z,12.00
2024-05-09T03:23:06.827Z,12.00
2024-05-09T03:24:06.643Z,12.00
2024-05-09T03:25:06.545Z,16.00
2024-05-09T03:26:06.720Z,20.00
2024-05-09T03:27:06.635Z,24.00
2024-05-09T03:28:06.548Z,28.00
2024-05-09T03:29:06.718Z,32.00
2024-05-09T03:30:07.664Z,32.00
2024-05-09T03:31:06.700Z,40.00
2024-05-09T03:32:06.691Z,44.00
2024-05-09T03:33:06.727Z,48.00
2024-05-09T03:34:06.618Z,52.00
2024-05-09T03:35:06.647Z,56.00
2024-05-09T03:36:09.793Z,64.00
2024-05-09T03:37:06.490Z,72.00
2024-05-09T03:38:06.633Z,76.00
2024-05-09T03:39:06.474Z,84.00
2024-05-09T03:40:09.350Z,92.00
2024-05-09T03:41:07.572Z,100.00
2024-05-09T03:42:06.446Z,108.00
2024-05-09T03:43:06.356Z,120.00
2024-05-09T03:44:06.578Z,132.00
2024-05-09T03:45:06.457Z,140.00
2024-05-09T03:46:06.318Z,156.00
2024-05-09T03:47:06.579Z,172.00
2024-05-09T03:48:07.717Z,184.00
2024-05-09T03:49:06.318Z,200.00
2024-05-09T03:50:14.961Z,216.00
2024-05-09T03:51:08.716Z,232.00
2024-05-09T03:52:06.248Z,252.00
2024-05-09T03:53:06.560Z,268.00
2024-05-09T03:54:06.320Z,292.00
2024-05-09T03:55:06.213Z,308.00
2024-05-09T03:56:06.422Z,328.00
2024-05-09T03:57:06.292Z,352.00
2024-05-09T03:58:06.199Z,372.00
2024-05-09T03:59:06.399Z,396.00
2024-05-09T04:00:12.242Z,416.00
2024-05-09T04:01:08.416Z,440.00
2024-05-09T04:02:06.460Z,472.00
2024-05-09T04:03:08.556Z,504.00
2024-05-09T04:04:06.207Z,532.00
2024-05-09T04:05:06.307Z,560.00
2024-05-09T04:06:06.185Z,592.00
2024-05-09T04:07:06.191Z,624.00
2024-05-09T04:08:06.334Z,664.00
2024-05-09T04:09:06.155Z,704.00
2024-05-09T04:10:08.915Z,740.00
2024-05-09T04:11:06.345Z,780.00
2024-05-09T04:12:06.208Z,816.00
2024-05-09T04:13:06.049Z,848.00
2024-05-09T04:14:06.356Z,876.00
2024-05-09T04:15:08.177Z,908.00
2024-05-09T04:16:05.990Z,940.00
2024-05-09T04:17:06.226Z,984.00
2024-05-09T04:18:06.331Z,1024.00
2024-05-09T04:19:06.061Z,1072.00
2024-05-09T04:20:08.368Z,1124.00
2024-05-09T04:21:06.157Z,1188.00
2024-05-09T04:22:05.940Z,1256.00
2024-05-09T04:23:06.543Z,1336.00
2024-05-09T04:24:05.992Z,1428.00
2024-05-09T04:25:05.910Z,1544.00
2024-05-09T04:26:06.080Z,1640.00
2024-05-09T04:27:05.150Z,1748.00
2024-05-09T04:28:05.985Z,1840.00
2024-05-09T04:29:06.062Z,1936.00
2024-05-09T04:30:09.934Z,2028.00
2024-05-09T04:31:07.009Z,2104.00
2024-05-09T04:32:06.096Z,2196.00
2024-05-09T04:33:07.094Z,2292.00
2024-05-09T04:34:07.128Z,2352.00
2024-05-09T04:35:05.973Z,2384.00
2024-05-09T04:36:05.864Z,2560.00
2024-05-09T04:37:05.768Z,2668.00
2024-05-09T04:38:06.297Z,2664.00
2024-05-09T04:39:05.828Z,2820.00
2024-05-09T04:40:08.948Z,3176.00
2024-05-09T04:41:06.919Z,3496.00
2024-05-09T04:42:05.796Z,3356.00
2024-05-09T04:43:06.496Z,3236.00
2024-05-09T04:44:05.933Z,3232.00
2024-05-09T04:45:05.768Z,3516.00
2024-05-09T04:46:05.673Z,3872.00
2024-05-09T04:47:05.921Z,4280.00
2024-05-09T04:48:06.000Z,4736.00
2024-05-09T04:49:05.719Z,5096.00
2024-05-09T04:50:05.858Z,5340.00
2024-05-09T04:51:05.839Z,5676.00
2024-05-09T04:52:05.608Z,5984.00
2024-05-09T04:53:06.431Z,6328.00
2024-05-09T04:54:08.428Z,6808.00
2024-05-09T04:55:05.582Z,6604.00
2024-05-09T04:56:05.822Z,6020.00
2024-05-09T04:57:05.641Z,6200.00
2024-05-09T04:58:05.762Z,7940.00
2024-05-09T04:59:05.717Z,9176.00
2024-05-09T05:00:09.439Z,9240.00
2024-05-09T05:01:07.693Z,8936.00
2024-05-09T05:02:05.713Z,8452.00
2024-05-09T05:03:06.662Z,7648.00
2024-05-09T05:04:05.578Z,8512.00
2024-05-09T05:05:05.703Z,8888.00
2024-05-09T05:06:05.656Z,7320.00
2024-05-09T05:07:05.463Z,6160.00
2024-05-09T05:08:05.771Z,6848.00
2024-05-09T05:09:05.515Z,9380.00
2024-05-09T05:10:05.963Z,10288.00
2024-05-09T05:11:04.801Z,10020.00
2024-05-09T05:12:05.672Z,9868.00
2024-05-09T05:13:05.403Z,9780.00
2024-05-09T05:14:04.794Z,10340.00
2024-05-09T05:15:05.454Z,10588.00
2024-05-09T05:16:05.353Z,10604.00
2024-05-09T05:17:05.561Z,10076.00
2024-05-09T05:18:05.565Z,9768.00
2024-05-09T05:19:09.030Z,9640.00
2024-05-09T05:20:08.749Z,9764.00
2024-05-09T05:21:05.435Z,10340.00
2024-05-09T05:22:04.547Z,10636.00
2024-05-09T05:23:05.482Z,10556.00
2024-05-09T05:24:05.350Z,10220.00
2024-05-09T05:25:05.255Z,9968.00
2024-05-09T05:26:05.452Z,9988.00
2024-05-09T05:27:05.320Z,10092.00
2024-05-09T05:28:04.447Z,10008.00
2024-05-09T05:29:05.441Z,10020.00
2024-05-09T05:30:07.511Z,10084.00
2024-05-09T05:31:06.367Z,10244.00
2024-05-09T05:32:05.513Z,10704.00
2024-05-09T05:33:05.403Z,11180.00
2024-05-09T05:34:05.273Z,11628.00
2024-05-09T05:35:05.419Z,11936.00
2024-05-09T05:36:05.224Z,12072.00
2024-05-09T05:37:05.131Z,11884.00
2024-05-09T05:38:05.338Z,11464.00
2024-05-09T05:39:05.209Z,11508.00
2024-05-09T05:40:05.766Z,11888.00
2024-05-09T05:41:05.281Z,12500.00
2024-05-09T05:42:05.162Z,13196.00
2024-05-09T05:43:05.070Z,12996.00
2024-05-09T05:44:05.280Z,12868.00
2024-05-09T05:45:06.676Z,12812.00
2024-05-09T05:46:05.699Z,13420.00
2024-05-09T05:47:05.237Z,13532.00
2024-05-09T05:48:06.336Z,13260.00
2024-05-09T05:49:05.146Z,13532.00
2024-05-09T05:50:09.399Z,13620.00
2024-05-09T05:51:06.146Z,13640.00
2024-05-09T05:52:04.967Z,14112.00
2024-05-09T05:53:05.178Z,15104.00
2024-05-09T05:54:05.028Z,15680.00
2024-05-09T05:55:04.940Z,15584.00
2024-05-09T05:56:05.173Z,15584.00
2024-05-09T05:57:04.138Z,15072.00
2024-05-09T05:58:04.871Z,14912.00
2024-05-09T05:59:05.092Z,14464.00
2024-05-09T06:00:09.410Z,14848.00
2024-05-09T06:01:06.101Z,15424.00
2024-05-09T06:02:05.173Z,17088.00
2024-05-09T06:03:04.276Z,18592.00
2024-05-09T06:04:05.048Z,18400.00
2024-05-09T06:05:05.139Z,17440.00
2024-05-09T06:06:05.083Z,17664.00
2024-05-09T06:07:04.807Z,18368.00
2024-05-09T06:08:04.220Z,19296.00
2024-05-09T06:09:04.892Z,21056.00
2024-05-09T06:10:09.288Z,22112.00
2024-05-09T06:11:06.106Z,22080.00
2024-05-09T06:12:04.191Z,20832.00
2024-05-09T06:13:04.739Z,19840.00
2024-05-09T06:14:04.008Z,19264.00
2024-05-09T06:15:04.841Z,22656.00
2024-05-09T06:16:04.729Z,25632.00
2024-05-09T06:17:04.961Z,26080.00
2024-05-09T06:18:05.032Z,22528.00
2024-05-09T06:19:04.920Z,19648.00
2024-05-09T06:20:07.384Z,17600.00
2024-05-09T06:21:05.874Z,16320.00
2024-05-09T06:22:04.651Z,15904.00
2024-05-09T06:23:05.124Z,15616.00
2024-05-09T06:24:06.678Z,15136.00
2024-05-09T06:25:04.628Z,14784.00
2024-05-09T06:26:04.862Z,14400.00
2024-05-09T06:27:04.680Z,14120.00
2024-05-09T06:28:04.856Z,14048.00
2024-05-09T06:29:04.778Z,14024.00
2024-05-09T06:30:05.164Z,13980.00
2024-05-09T06:31:04.552Z,13996.00
2024-05-09T06:32:04.824Z,13960.00
2024-05-09T06:33:05.054Z,13948.00
2024-05-09T06:34:04.985Z,14140.00
2024-05-09T06:35:04.768Z,14256.00
2024-05-09T06:36:04.589Z,14456.00
2024-05-09T06:37:04.515Z,14832.00
2024-05-09T06:38:04.863Z,15360.00
2024-05-09T06:39:04.554Z,15552.00
2024-05-09T06:40:07.265Z,18560.00
2024-05-09T06:41:03.708Z,20992.00
2024-05-09T06:42:04.524Z,21536.00
2024-05-09T06:43:04.432Z,22496.00
2024-05-09T06:44:04.598Z,24320.00
2024-05-09T06:45:04.520Z,23424.00
2024-05-09T06:46:04.388Z,22624.00
2024-05-09T06:47:04.631Z,23424.00
2024-05-09T06:48:04.785Z,24704.00
2024-05-09T06:49:04.759Z,25728.00
2024-05-09T06:50:08.207Z,25856.00
2024-05-09T06:51:05.470Z,26944.00
2024-05-09T06:52:04.331Z,28032.00
2024-05-09T06:53:04.501Z,27968.00
2024-05-09T06:54:04.394Z,28800.00
2024-05-09T06:55:04.299Z,29120.00
2024-05-09T06:56:04.468Z,29728.00
2024-05-09T06:57:04.363Z,29888.00
2024-05-09T06:58:04.289Z,30976.00
2024-05-09T06:59:04.438Z,31008.00
2024-05-09T07:00:05.110Z,29408.00
2024-05-09T07:01:04.253Z,29280.00
2024-05-09T07:02:04.422Z,30720.00
2024-05-09T07:03:05.933Z,31168.00
2024-05-09T07:04:04.479Z,30880.00
2024-05-09T07:05:04.617Z,28704.00
2024-05-09T07:06:04.442Z,29248.00
2024-05-09T07:07:04.173Z,31616.00
2024-05-09T07:08:04.440Z,30496.00
2024-05-09T07:09:04.248Z,28864.00
2024-05-09T07:10:06.298Z,29664.00
2024-05-09T07:11:04.569Z,29888.00
2024-05-09T07:12:04.325Z,30432.00
2024-05-09T07:13:04.136Z,31616.00
2024-05-09T07:14:04.287Z,32320.00
2024-05-09T07:15:04.165Z,31328.00
2024-05-09T07:16:04.087Z,32096.00
2024-05-09T07:17:03.424Z,30784.00
2024-05-09T07:18:04.299Z,29728.00
2024-05-09T07:19:04.400Z,29824.00
2024-05-09T07:20:05.527Z,30112.00
2024-05-09T07:21:04.168Z,31904.00
2024-05-09T07:22:04.009Z,33408.00
2024-05-09T07:23:04.301Z,34656.00
2024-05-09T07:24:04.086Z,33024.00
2024-05-09T07:25:03.977Z,33120.00
2024-05-09T07:26:04.214Z,35072.00
2024-05-09T07:27:04.040Z,33376.00
2024-05-09T07:28:03.955Z,31552.00
2024-05-09T07:29:04.204Z,31552.00
2024-05-09T07:30:05.592Z,33856.00
2024-05-09T07:31:03.916Z,33632.00
2024-05-09T07:32:04.115Z,30112.00
2024-05-09T07:33:04.287Z,28480.00
2024-05-09T07:34:04.023Z,31520.00
2024-05-09T07:35:03.240Z,35104.00
2024-05-09T07:36:03.947Z,36480.00
2024-05-09T07:37:03.869Z,37312.00
2024-05-09T07:38:04.052Z,37472.00
2024-05-09T07:39:03.917Z,36800.00
2024-05-09T07:40:05.802Z,37376.00
2024-05-09T07:41:04.057Z,31776.00
2024-05-09T07:42:03.889Z,37344.00
2024-05-09T07:43:03.801Z,36576.00
2024-05-09T07:44:04.056Z,37184.00
2024-05-09T07:45:20.896Z,39680.00
2024-05-09T07:47:04.524Z,39232.00
2024-05-09T07:48:14.155Z,37152.00
2024-05-09T07:50:53.279Z,35808.00
2024-05-09T07:51:54.807Z,36192.00
2024-05-09T07:53:27.113Z,38240.00
2024-05-09T07:53:36.355Z,37824.00
2024-05-09T07:54:06.461Z,39520.00
2024-05-09T07:55:04.914Z,41952.00
2024-05-09T07:56:04.409Z,42976.00
2024-05-09T07:57:03.830Z,41184.00
2024-05-09T07:58:03.721Z,41024.00
2024-05-09T07:59:03.790Z,44800.00
2024-05-09T08:00:04.514Z,47200.00
2024-05-09T08:01:03.819Z,43808.00
2024-05-09T08:02:03.932Z,40256.00
2024-05-09T08:03:03.693Z,41120.00
2024-05-09T08:04:03.687Z,44352.00
2024-05-09T08:05:03.807Z,46368.00
2024-05-09T08:06:03.635Z,44768.00
2024-05-09T08:07:03.554Z,45152.00
2024-05-09T08:08:03.696Z,44448.00
2024-05-09T08:09:08.052Z,43456.00
2024-05-09T08:10:08.033Z,44480.00
2024-05-09T08:11:04.192Z,42912.00
2024-05-09T08:12:03.570Z,43552.00
2024-05-09T08:13:03.489Z,45792.00
2024-05-09T08:14:03.626Z,47872.00
2024-05-09T08:15:03.545Z,48544.00
2024-05-09T08:16:03.464Z,47872.00
2024-05-09T08:17:03.627Z,47008.00
2024-05-09T08:18:03.596Z,41408.00
2024-05-09T08:19:03.606Z,46208.00
2024-05-09T08:20:05.592Z,48096.00
2024-05-09T08:21:03.465Z,47360.00
2024-05-09T08:22:02.644Z,43232.00
2024-05-09T08:23:03.540Z,41760.00
2024-05-09T08:24:03.448Z,39904.00
2024-05-09T08:25:03.377Z,38176.00
2024-05-09T08:26:03.496Z,39392.00
2024-05-09T08:27:03.417Z,40352.00
2024-05-09T08:28:03.334Z,27360.00
2024-05-09T08:29:03.477Z,13348.00
2024-05-09T08:30:03.960Z,11092.00
2024-05-09T08:31:06.133Z,10396.00
2024-05-09T08:32:03.510Z,9976.00
2024-05-09T08:33:03.382Z,9644.00
2024-05-09T08:34:03.406Z,9384.00
2024-05-09T08:35:03.439Z,9184.00
2024-05-09T08:36:03.312Z,9032.00
2024-05-09T08:37:10.187Z,8940.00
2024-05-09T08:38:05.560Z,8848.00
2024-05-09T08:39:03.271Z,8764.00
2024-05-09T08:40:04.044Z,8668.00
2024-05-09T08:41:03.334Z,8600.00
2024-05-09T08:42:03.240Z,8500.00
2024-05-09T08:43:03.392Z,8408.00
2024-05-09T08:44:03.306Z,8324.00
2024-05-09T08:45:03.222Z,8248.00
2024-05-09T08:46:03.173Z,8188.00
2024-05-09T08:47:03.325Z,8128.00
2024-05-09T08:48:03.262Z,8084.00
2024-05-09T08:49:03.269Z,8044.00
2024-05-09T08:51:03.152Z,7960.00
2024-05-09T08:52:03.115Z,7936.00
2024-05-09T08:53:03.212Z,7912.00
2024-05-09T08:54:03.112Z,7876.00
2024-05-09T08:55:03.131Z,7840.00
2024-05-09T08:56:03.179Z,7780.00
2024-05-09T08:57:03.086Z,7720.00
2024-05-09T08:58:03.012Z,7648.00
2024-05-09T08:59:03.152Z,7596.00
2024-05-09T09:00:04.878Z,7540.00
2024-05-09T09:01:03.039Z,7496.00
2024-05-09T09:02:03.182Z,7488.00
2024-05-09T09:03:03.068Z,7452.00
2024-05-09T09:04:03.023Z,7404.00
2024-05-09T09:05:03.237Z,7384.00
2024-05-09T09:06:03.017Z,7376.00
2024-05-09T09:07:03.708Z,7348.00
2024-05-09T09:08:03.049Z,7316.00
2024-05-09T09:09:02.970Z,7352.00
2024-05-09T09:10:03.236Z,7428.00
2024-05-09T09:11:03.039Z,7456.00
2024-05-09T09:12:03.008Z,7616.00
2024-05-09T09:13:02.888Z,7588.00
2024-05-09T09:14:02.984Z,7644.00
2024-05-09T09:15:02.887Z,7680.00
2024-05-09T09:16:03.276Z,7536.00
2024-05-09T09:17:02.959Z,7060.00
2024-05-09T09:18:02.945Z,7624.00
2024-05-09T09:19:02.905Z,7528.00
2024-05-09T09:20:03.020Z,7064.00
2024-05-09T09:21:02.928Z,7688.00
2024-05-09T09:22:02.834Z,7304.00
2024-05-09T09:23:02.914Z,6368.00
2024-05-09T09:24:02.800Z,7912.00
2024-05-09T09:25:02.740Z,7772.00
2024-05-09T09:26:02.861Z,7816.00
2024-05-09T09:27:02.775Z,7560.00
2024-05-09T09:28:02.674Z,7556.00
2024-05-09T09:29:02.863Z,7504.00
2024-05-09T09:30:03.520Z,7296.00
2024-05-09T09:31:02.646Z,6116.00
2024-05-09T09:32:02.801Z,6100.00
2024-05-09T09:33:02.835Z,7120.00
2024-05-09T09:34:02.883Z,6892.00
2024-05-09T09:35:02.829Z,7520.00
2024-05-09T09:36:02.677Z,7712.00
2024-05-09T09:37:02.607Z,7776.00
2024-05-09T09:38:03.213Z,7636.00
2024-05-09T09:39:02.639Z,7408.00
2024-05-09T09:40:02.615Z,7344.00
2024-05-09T09:41:02.875Z,7344.00
2024-05-09T09:42:02.598Z,7324.00
2024-05-09T09:43:02.609Z,7284.00
2024-05-09T09:44:02.661Z,7292.00
2024-05-09T09:45:05.332Z,7328.00
2024-05-09T09:46:02.583Z,7208.00
2024-05-09T09:47:02.671Z,7176.00
2024-05-09T09:48:02.663Z,7160.00
2024-05-09T09:49:02.746Z,7084.00
2024-05-09T09:50:03.116Z,7084.00
2024-05-09T09:51:02.502Z,7132.00
2024-05-09T09:52:02.481Z,7220.00
2024-05-09T09:53:01.646Z,7336.00
2024-05-09T09:54:02.519Z,7416.00
2024-05-09T09:55:02.458Z,7504.00
2024-05-09T09:56:01.643Z,7312.00
2024-05-09T09:57:02.446Z,5964.00
2024-05-09T09:58:02.378Z,7140.00
2024-05-09T09:59:02.526Z,7684.00
2024-05-09T10:00:05.643Z,7744.00
2024-05-09T10:01:02.473Z,7780.00
2024-05-09T10:02:02.742Z,7892.00
2024-05-09T10:03:02.532Z,8132.00
2024-05-09T10:04:02.429Z,8192.00
2024-05-09T10:05:02.604Z,8144.00
2024-05-09T10:06:02.423Z,8120.00
2024-05-09T10:07:02.282Z,8656.00
2024-05-09T10:08:02.453Z,8556.00
2024-05-09T10:09:02.331Z,8424.00
2024-05-09T10:10:02.588Z,7152.00
2024-05-09T10:11:02.528Z,6460.00
2024-05-09T10:12:02.368Z,6876.00
2024-05-09T10:13:02.312Z,9064.00
2024-05-09T10:14:02.372Z,9268.00
2024-05-09T10:15:02.259Z,9564.00
2024-05-09T10:16:02.218Z,8564.00
2024-05-09T10:17:02.332Z,7536.00
2024-05-09T10:18:02.465Z,6788.00
2024-05-09T10:19:02.273Z,7636.00
2024-05-09T10:20:02.537Z,8544.00
2024-05-09T10:21:02.183Z,7804.00
2024-05-09T10:22:02.153Z,8700.00
2024-05-09T10:23:02.246Z,8788.00
2024-05-09T10:24:02.181Z,8972.00
2024-05-09T10:25:04.726Z,10584.00
2024-05-09T10:26:02.222Z,5840.00
2024-05-09T10:27:02.122Z,6216.00
2024-05-09T10:28:02.043Z,7808.00
2024-05-09T10:29:02.185Z,22624.00
2024-05-09T10:30:02.860Z,54368.00
2024-05-09T10:31:02.066Z,66464.00
2024-05-09T10:32:02.158Z,64256.00
2024-05-09T10:33:02.185Z,53536.00
2024-05-09T10:34:02.171Z,62080.00
2024-05-09T10:37:25.571Z,63328.00
2024-05-09T10:38:24.354Z,44608.00
2024-05-09T10:39:24.264Z,13096.00
2024-05-09T10:40:29.122Z,7356.00
2024-05-09T10:41:25.346Z,6772.00
2024-05-09T10:42:24.235Z,6904.00
2024-05-09T10:43:23.409Z,7264.00
2024-05-09T10:44:23.360Z,7536.00
2024-05-09T10:45:24.195Z,7708.00
2024-05-09T10:46:23.484Z,7872.00
2024-05-09T10:47:24.492Z,7604.00
2024-05-09T10:48:24.410Z,7600.00
2024-05-09T10:49:23.400Z,7604.00
2024-05-09T10:50:28.677Z,7672.00
2024-05-09T10:51:25.157Z,7692.00
2024-05-09T10:52:23.324Z,7676.00
2024-05-09T10:53:24.189Z,7924.00
2024-05-09T10:54:24.117Z,7780.00
2024-05-09T10:55:24.311Z,7500.00
2024-05-09T10:56:24.160Z,6472.00
2024-05-09T10:57:23.228Z,6176.00
2024-05-09T10:58:23.287Z,5996.00
2024-05-09T10:59:24.129Z,6540.00
2024-05-09T11:00:30.552Z,6440.00
2024-05-09T11:01:24.280Z,5584.00
2024-05-09T11:02:23.405Z,5008.00
2024-05-09T11:03:24.089Z,4832.00
2024-05-09T11:04:23.959Z,4880.00
2024-05-09T11:05:24.165Z,5768.00
2024-05-09T11:06:23.124Z,5484.00
2024-05-09T11:07:24.158Z,5396.00
2024-05-09T11:08:24.046Z,5400.00
2024-05-09T11:09:23.165Z,5512.00
2024-05-09T11:10:27.925Z,5524.00
2024-05-09T11:11:25.170Z,5608.00
2024-05-09T11:12:24.772Z,5644.00
2024-05-09T11:13:23.816Z,6032.00
2024-05-09T11:14:23.975Z,6452.00
2024-05-09T11:15:23.878Z,5808.00
2024-05-09T11:16:23.855Z,6204.00
2024-05-09T11:17:24.063Z,5700.00
2024-05-09T11:18:25.438Z,5592.00
2024-05-09T11:19:23.993Z,5260.00
2024-05-09T11:20:29.512Z,4860.00
2024-05-09T11:21:25.413Z,4516.00
2024-05-09T11:22:23.766Z,4476.00
2024-05-09T11:23:23.874Z,4916.00
2024-05-09T11:24:23.778Z,5048.00
2024-05-09T11:25:23.709Z,4692.00
2024-05-09T11:26:23.841Z,4776.00
2024-05-09T11:27:23.747Z,4904.00
2024-05-09T11:28:23.733Z,4940.00
2024-05-09T11:29:22.900Z,4872.00
2024-05-09T11:30:29.818Z,4744.00
2024-05-09T11:31:25.561Z,4812.00
2024-05-09T11:32:23.820Z,4796.00
2024-05-09T11:33:23.705Z,4808.00
2024-05-09T11:34:23.647Z,4736.00
2024-05-09T11:35:22.858Z,4572.00
2024-05-09T11:36:23.653Z,4648.00
2024-05-09T11:37:23.591Z,4900.00
2024-05-09T11:38:23.721Z,4904.00
2024-05-09T11:39:23.623Z,4936.00
2024-05-09T11:40:25.927Z,5040.00
2024-05-09T11:41:25.727Z,5064.00
2024-05-09T11:42:23.588Z,5116.00
2024-05-09T11:43:23.591Z,5048.00
2024-05-09T11:44:23.654Z,5044.00
2024-05-09T11:45:23.560Z,5136.00
2024-05-09T11:46:23.516Z,5116.00
2024-05-09T11:47:23.672Z,5344.00
2024-05-09T11:48:22.881Z,5708.00
2024-05-09T11:49:26.787Z,5732.00
2024-05-09T11:50:29.921Z,5844.00
2024-05-09T11:51:24.508Z,6296.00
2024-05-09T11:52:23.458Z,5932.00
2024-05-09T11:53:22.684Z,5396.00
2024-05-09T11:54:23.456Z,4756.00
2024-05-09T11:55:26.810Z,4836.00
2024-05-09T11:56:24.018Z,5364.00
2024-05-09T11:57:23.426Z,4904.00
2024-05-09T11:58:23.056Z,4576.00
2024-05-09T11:59:23.491Z,4520.00
2024-05-09T12:01:25.301Z,5204.00
2024-05-09T12:02:23.497Z,5096.00
2024-05-09T12:03:23.393Z,4840.00
2024-05-09T12:04:23.492Z,4732.00
2024-05-09T12:05:23.526Z,4840.00
2024-05-09T12:06:23.338Z,4544.00
2024-05-09T12:07:23.343Z,4556.00
2024-05-09T12:08:22.478Z,4692.00
2024-05-09T12:09:23.297Z,4392.00
2024-05-09T12:10:32.056Z,4368.00
2024-05-09T12:11:24.449Z,4408.00
2024-05-09T12:12:23.266Z,4192.00
2024-05-09T12:13:23.348Z,4124.00
2024-05-09T12:14:23.340Z,4000.00
2024-05-09T12:15:23.232Z,4084.00
2024-05-09T12:16:22.565Z,4460.00
2024-05-09T12:17:23.389Z,4632.00
2024-05-09T12:18:23.256Z,4492.00
2024-05-09T12:19:23.316Z,3896.00
2024-05-09T12:20:28.886Z,3580.00
2024-05-09T12:21:25.779Z,3596.00
2024-05-09T12:22:23.082Z,3624.00
2024-05-09T12:23:23.235Z,4168.00
2024-05-09T12:24:23.135Z,4308.00
2024-05-09T12:25:23.125Z,4588.00
2024-05-09T12:26:23.218Z,4496.00